Time;durP1;ratioP1;P1;durP2;ratioP2;P2;SDS_P1;SDS_P2;PMS_P1;PMS_P2;Temp;Humidity;BMP_temperature;BMP_pressure;BME280_temperature;BME280_humidity;BME280_pressure;Samples;Min_cycle;Max_cycle;Signal;HPM_P1;HPM_P2
2024/01/01 00:01:18;;;;;;;7.93;7.13;;;16.20;67.90;17.10;99337.00;;;;5044064;28;20405;-48
2024/01/01 00:03:44;;;;;;;7.60;6.90;;;16.20;67.80;17.10;99344.00;;;;5062725;28;20238;-47
2024/01/01 00:06:09;;;;;;;7.90;7.20;;;16.20;67.80;17.10;99348.00;;;;5070870;28;20184;-48
2024/01/01 00:08:35;;;;;;;8.40;7.60;;;16.10;67.80;17.10;99359.00;;;;5062816;28;20831;-48
2024/01/01 00:11:01;;;;;;;8.23;7.43;;;16.10;67.80;17.10;99353.00;;;;5063848;28;20863;-48
2024/01/01 00:13:27;;;;;;;8.07;7.37;;;16.10;67.70;17.00;99360.00;;;;5072705;28;20182;-47
2024/01/01 00:15:52;;;;;;;8.37;7.57;;;16.10;67.80;17.10;99365.00;;;;5071587;28;20187;-48
2024/01/01 00:18:18;;;;;;;8.27;7.47;;;16.10;67.70;17.00;99373.00;;;;5070591;28;20191;-48
2024/01/01 00:20:45;;;;;;;8.27;7.47;;;16.10;67.80;17.00;99363.00;;;;5035179;28;20178;-48
2024/01/01 00:23:10;;;;;;;8.73;7.93;;;16.00;67.80;17.00;99361.00;;;;5067771;28;20264;-48
2024/01/01 00:25:36;;;;;;;8.40;7.53;;;16.10;67.80;17.00;99357.00;;;;5071130;28;20328;-47
2024/01/01 00:28:04;;;;;;;8.30;7.60;;;16.00;67.70;17.00;99356.00;;;;5064078;28;20650;-48
2024/01/01 00:30:30;;;;;;;8.90;8.10;;;16.10;67.80;17.00;99360.00;;;;5050705;28;20175;-48
2024/01/01 00:32:56;;;;;;;8.70;7.90;;;16.00;67.70;17.00;99357.00;;;;5071103;28;20205;-49
2024/01/01 00:35:21;;;;;;;8.53;7.70;;;16.00;67.70;17.00;99350.00;;;;5070899;28;20185;-48
2024/01/01 00:37:47;;;;;;;8.70;7.90;;;16.00;67.80;17.00;99339.00;;;;5067996;28;20548;-49
2024/01/01 00:40:13;;;;;;;8.83;7.97;;;16.00;67.80;17.00;99339.00;;;;5067485;28;20183;-48
2024/01/01 00:42:38;;;;;;;8.67;7.87;;;16.00;67.70;16.90;99345.00;;;;5063964;28;20735;-48
2024/01/01 00:45:05;;;;;;;8.70;7.90;;;16.00;67.80;16.90;99345.00;;;;5070655;28;20599;-48
2024/01/01 00:47:31;;;;;;;9.10;8.30;;;16.00;67.80;16.90;99350.00;;;;5037674;28;20268;-47
2024/01/01 00:49:58;;;;;;;9.17;8.00;;;15.90;67.70;16.90;99345.00;;;;5064686;28;20181;-47
2024/01/01 00:52:23;;;;;;;8.53;7.73;;;16.00;67.80;16.90;99348.00;;;;5070454;28;20201;-48
2024/01/01 00:54:49;;;;;;;8.80;8.00;;;15.90;67.70;16.90;99339.00;;;;5070717;28;20184;-48
2024/01/01 00:57:15;;;;;;;8.93;8.00;;;15.90;67.70;16.90;99344.00;;;;5070147;28;20181;-48
2024/01/01 00:59:41;;;;;;;8.80;7.90;;;15.90;67.70;16.90;99347.00;;;;5069082;28;20172;-49
2024/01/01 01:02:06;;;;;;;8.87;7.97;;;15.90;67.70;16.90;99284.00;;;;5069578;28;20198;-47
2024/01/01 01:04:32;;;;;;;8.83;7.80;;;15.90;67.70;16.90;99357.00;;;;5069280;28;20263;-49
2024/01/01 01:06:58;;;;;;;9.20;8.30;;;15.90;67.70;16.90;99344.00;;;;5045757;28;20719;-48
2024/01/01 01:09:23;;;;;;;8.60;7.80;;;15.90;67.70;16.90;99278.00;;;;5059878;28;20175;-49
2024/01/01 01:11:49;;;;;;;8.37;7.57;;;15.90;67.70;16.90;99354.00;;;;5069793;28;20197;-48
2024/01/01 01:14:15;;;;;;;8.67;7.87;;;15.90;67.70;16.90;99355.00;;;;5069748;28;20673;-49
2024/01/01 01:16:41;;;;;;;8.80;8.00;;;15.90;67.70;16.90;99343.00;;;;5076503;28;20191;-49
2024/01/01 01:19:06;;;;;;;8.17;7.47;;;15.90;67.70;16.90;99343.00;;;;5082717;28;20205;-48
2024/01/01 01:21:32;;;;;;;8.30;7.50;;;15.90;67.70;16.90;99341.00;;;;5039896;28;21423;-47
2024/01/01 01:23:58;;;;;;;8.07;7.33;;;15.90;67.70;16.80;99338.00;;;;5071074;28;20654;-53
2024/01/01 01:26:24;;;;;;;8.57;7.77;;;15.90;67.70;16.90;99335.00;;;;5070528;28;20184;-48
2024/01/01 01:28:50;;;;;;;8.13;7.43;;;15.80;67.60;16.80;99334.00;;;;5069049;28;20211;-48
2024/01/01 01:31:16;;;;;;;8.47;7.67;;;15.80;67.60;16.80;99339.00;;;;5072879;28;20227;-48
2024/01/01 01:33:42;;;;;;;8.37;7.60;;;15.80;67.60;16.80;99339.00;;;;5083614;28;20657;-48
2024/01/01 01:36:09;;;;;;;8.10;7.40;;;15.80;67.70;16.80;99322.00;;;;5070034;28;20184;-49
2024/01/01 01:38:35;;;;;;;8.40;7.60;;;15.80;67.80;16.80;99328.00;;;;5069080;28;20194;-48
2024/01/01 01:41:01;;;;;;;8.00;7.27;;;15.80;67.80;16.80;99328.00;;;;5068749;28;20263;-48
2024/01/01 01:43:27;;;;;;;8.30;7.50;;;15.80;67.90;16.80;99323.00;;;;5068563;28;20623;-48
2024/01/01 01:45:53;;;;;;;7.70;7.00;;;15.70;67.90;16.80;99319.00;;;;5068534;28;20216;-48
2024/01/01 01:48:19;;;;;;;7.67;6.97;;;15.70;68.00;16.80;99320.00;;;;5036361;28;20187;-49
2024/01/01 01:50:45;;;;;;;7.67;6.97;;;15.70;68.20;16.80;99312.00;;;;5068586;28;20331;-48
2024/01/01 01:53:12;;;;;;;8.37;7.57;;;15.70;68.20;16.80;99322.00;;;;5068854;28;20219;-48
2024/01/01 01:55:41;;;;;;;7.50;6.80;;;15.70;68.20;16.70;99299.00;;;;5047027;28;20552;-48
2024/01/01 01:58:07;;;;;;;7.30;6.70;;;15.70;68.30;16.70;99313.00;;;;5063798;28;20199;-47
2024/01/01 02:00:33;;;;;;;7.50;6.90;;;15.70;68.20;16.70;99297.00;;;;5067706;28;20193;-49
2024/01/01 02:02:59;;;;;;;7.70;7.00;;;15.70;68.30;16.70;99299.00;;;;5068869;28;20206;-48
2024/01/01 02:05:24;;;;;;;7.43;6.73;;;15.70;68.30;16.70;99299.00;;;;5049590;28;20184;-48
2024/01/01 02:07:50;;;;;;;7.10;6.50;;;15.70;68.30;16.70;99294.00;;;;5067951;28;20192;-49
2024/01/01 02:10:16;;;;;;;7.43;6.80;;;15.70;68.30;16.70;99305.00;;;;5068127;28;20178;-48
2024/01/01 02:12:44;;;;;;;7.30;6.67;;;15.70;68.30;16.70;99294.00;;;;5068088;28;20521;-48
2024/01/01 02:15:10;;;;;;;7.40;6.70;;;15.60;68.30;16.70;99294.00;;;;5068547;28;20230;-47
2024/01/01 02:17:36;;;;;;;7.20;6.50;;;15.70;68.30;16.70;99304.00;;;;5068066;28;20196;-48
2024/01/01 02:20:02;;;;;;;6.97;6.37;;;15.60;68.10;16.70;99289.00;;;;5068182;28;20197;-48
2024/01/01 02:22:38;;;;;;;7.00;6.40;;;15.60;68.20;16.70;99292.00;;;;5068130;28;20193;-48
2024/01/01 02:25:08;;;;;;;7.10;6.50;;;15.60;68.20;16.70;99314.00;;;;5048956;28;20185;-49
2024/01/01 02:27:36;;;;;;;7.17;6.47;;;15.60;68.20;16.70;99322.00;;;;5067685;28;20189;-49
2024/01/01 02:30:02;;;;;;;7.20;6.50;;;15.60;68.10;16.70;99329.00;;;;5067785;28;20656;-49
2024/01/01 02:32:27;;;;;;;6.80;6.20;;;15.60;68.20;16.70;99345.00;;;;5067585;28;20270;-49
2024/01/01 02:34:53;;;;;;;6.40;5.90;;;15.60;68.10;16.60;99346.00;;;;5068036;28;20657;-48
2024/01/01 02:37:19;;;;;;;7.03;6.33;;;15.60;68.10;16.60;99359.00;;;;5067486;28;20181;-48
2024/01/01 02:39:45;;;;;;;6.97;6.27;;;15.60;68.30;16.60;99347.00;;;;5067598;28;20212;-48
2024/01/01 02:42:10;;;;;;;6.93;6.23;;;15.50;68.20;16.60;99357.00;;;;5067499;28;20735;-47
2024/01/01 02:44:36;;;;;;;6.63;6.03;;;15.60;68.30;16.60;99365.00;;;;5067444;28;20182;-48
2024/01/01 02:47:02;;;;;;;6.40;5.80;;;15.50;68.20;16.60;99369.00;;;;5067528;28;20639;-48
2024/01/01 02:49:28;;;;;;;6.90;6.20;;;15.50;68.20;16.50;99365.00;;;;5041763;28;20189;-47
2024/01/01 02:51:53;;;;;;;6.60;6.00;;;15.50;68.20;16.60;99362.00;;;;5048145;28;20214;-48
2024/01/01 02:54:19;;;;;;;6.60;6.00;;;15.50;68.20;16.50;99356.00;;;;5067517;28;20193;-49
2024/01/01 02:56:45;;;;;;;5.93;5.33;;;15.50;68.40;16.50;99363.00;;;;5038804;28;20190;-48
2024/01/01 02:59:11;;;;;;;6.10;5.53;;;15.40;68.50;16.50;99362.00;;;;5063499;28;20708;-48
2024/01/01 03:01:37;;;;;;;6.20;5.70;;;15.40;68.50;16.50;99362.00;;;;5048448;28;20311;-48
2024/01/01 03:04:02;;;;;;;6.13;5.63;;;15.40;68.70;16.50;99371.00;;;;5062804;28;20210;-48
2024/01/01 03:06:28;;;;;;;5.93;5.37;;;15.40;68.50;16.50;99367.00;;;;5066055;28;20178;-48
2024/01/01 03:08:54;;;;;;;5.97;5.43;;;15.40;68.50;16.50;99357.00;;;;5069351;28;20273;-49
2024/01/01 03:11:19;;;;;;;6.13;5.53;;;15.40;68.60;16.50;99359.00;;;;5072415;28;20247;-47
2024/01/01 03:13:46;;;;;;;5.97;5.47;;;15.40;68.50;16.50;99358.00;;;;5070660;28;20200;-47
2024/01/01 03:16:13;;;;;;;6.20;5.60;;;15.40;68.40;16.50;99343.00;;;;5068998;28;20175;-48
2024/01/01 03:18:38;;;;;;;6.30;5.70;;;15.50;68.50;16.50;99349.00;;;;5034622;28;20316;-48
2024/01/01 03:21:06;;;;;;;6.10;5.50;;;15.50;69.30;16.50;99344.00;;;;5061582;28;20209;-55
2024/01/01 03:23:31;;;;;;;6.00;5.40;;;15.50;68.30;16.50;99335.00;;;;5075817;28;20184;-49
2024/01/01 03:25:57;;;;;;;6.00;5.43;;;15.50;68.10;16.50;99339.00;;;;5072704;28;20178;-47
2024/01/01 03:28:23;;;;;;;5.70;5.20;;;15.50;68.10;16.50;99340.00;;;;5053849;28;20562;-48
2024/01/01 03:30:49;;;;;;;5.43;5.00;;;15.50;68.10;16.50;99344.00;;;;5071045;28;20226;-47
2024/01/01 03:33:14;;;;;;;6.20;5.60;;;15.50;68.10;16.50;99343.00;;;;5071445;28;20185;-47
2024/01/01 03:35:40;;;;;;;5.77;5.27;;;15.50;68.10;16.50;99354.00;;;;5071228;28;20779;-49
2024/01/01 03:38:06;;;;;;;5.70;5.20;;;15.50;68.00;16.50;99351.00;;;;5073006;28;20227;-48
2024/01/01 03:40:31;;;;;;;5.80;5.30;;;15.50;68.00;16.50;99353.00;;;;5072764;28;20185;-48
2024/01/01 03:42:57;;;;;;;5.93;5.33;;;15.50;67.90;16.50;99354.00;;;;5064796;28;20198;-48
2024/01/01 03:45:23;;;;;;;5.60;5.10;;;15.50;68.00;16.50;99358.00;;;;5070704;28;20193;-48
2024/01/01 03:47:49;;;;;;;5.23;4.73;;;15.50;68.10;16.50;99362.00;;;;5070660;28;20243;-49
2024/01/01 03:50:16;;;;;;;5.47;4.97;;;15.50;68.90;16.50;99356.00;;;;5070450;28;20423;-48
2024/01/01 03:52:42;;;;;;;5.87;5.33;;;15.50;68.10;16.50;99359.00;;;;5038335;28;20198;-48
2024/01/01 03:55:07;;;;;;;5.33;4.83;;;15.50;68.20;16.50;99354.00;;;;5071264;28;20500;-48
2024/01/01 03:57:33;;;;;;;5.50;5.00;;;15.50;68.20;16.50;99360.00;;;;5070727;28;20190;-49
2024/01/01 03:59:59;;;;;;;5.53;5.03;;;15.50;68.10;16.50;99360.00;;;;5070395;28;20190;-47
2024/01/01 04:02:25;;;;;;;5.73;5.13;;;15.50;68.00;16.50;99360.00;;;;5071437;28;20202;-48
2024/01/01 04:04:51;;;;;;;5.20;4.70;;;15.50;68.00;16.50;99360.00;;;;5071658;28;20193;-48
2024/01/01 04:07:17;;;;;;;5.87;5.27;;;15.50;67.90;16.50;99356.00;;;;5052428;28;20235;-47
2024/01/01 04:09:43;;;;;;;5.63;4.87;;;15.50;67.90;16.50;99367.00;;;;5070985;28;20240;-47
2024/01/01 04:12:09;;;;;;;5.37;4.87;;;15.50;68.00;16.50;99369.00;;;;5039825;28;20543;-48
2024/01/01 04:14:35;;;;;;;5.40;4.90;;;15.50;67.90;16.50;99367.00;;;;5071051;28;20173;-48
2024/01/01 04:17:03;;;;;;;5.00;4.50;;;15.50;67.80;16.50;99373.00;;;;5071299;28;20255;-48
2024/01/01 04:19:29;;;;;;;5.40;4.90;;;15.50;68.00;16.50;99370.00;;;;5070454;28;20198;-48
2024/01/01 04:21:55;;;;;;;5.00;4.60;;;15.50;68.10;16.50;99368.00;;;;5071368;28;20696;-48
2024/01/01 04:24:20;;;;;;;4.93;4.50;;;15.50;68.20;16.50;99368.00;;;;5071014;28;20185;-48
2024/01/01 04:26:46;;;;;;;5.10;4.70;;;15.40;68.00;16.50;99364.00;;;;5071700;28;20200;-48
2024/01/01 04:29:12;;;;;;;5.13;4.67;;;15.50;68.20;16.50;99356.00;;;;5050914;28;21152;-48
2024/01/01 04:31:38;;;;;;;5.03;4.60;;;15.50;68.10;16.50;99365.00;;;;5049085;28;20197;-51
2024/01/01 04:34:03;;;;;;;5.40;4.90;;;15.50;68.00;16.50;99361.00;;;;5070933;28;20189;-48
2024/01/01 04:36:30;;;;;;;5.43;4.63;;;15.40;68.10;16.50;99364.00;;;;5045048;28;20201;-47
2024/01/01 04:38:55;;;;;;;5.50;5.00;;;15.40;68.20;16.40;99365.00;;;;5070215;28;20284;-48
2024/01/01 04:41:21;;;;;;;5.40;4.40;;;15.40;68.80;16.40;99356.00;;;;5037993;28;20209;-48
2024/01/01 04:43:47;;;;;;;6.00;4.50;;;15.40;69.20;16.40;99361.00;;;;5070846;28;20546;-48
2024/01/01 04:46:13;;;;;;;4.77;4.30;;;15.50;68.20;16.40;99376.00;;;;5070709;28;20201;-48
2024/01/01 04:48:38;;;;;;;4.53;4.13;;;15.40;68.10;16.40;99370.00;;;;5067797;28;20217;-48
2024/01/01 04:51:05;;;;;;;5.87;4.30;;;15.40;68.10;16.40;99375.00;;;;5058470;28;20190;-48
2024/01/01 04:53:31;;;;;;;5.23;4.23;;;15.40;68.00;16.40;99370.00;;;;5068836;28;20186;-48
2024/01/01 04:55:56;;;;;;;5.03;4.53;;;15.40;68.10;16.40;99366.00;;;;5057195;28;20333;-48
2024/01/01 04:58:22;;;;;;;4.47;3.97;;;15.40;68.00;16.40;99380.00;;;;5070087;28;20579;-48
2024/01/01 05:00:48;;;;;;;5.53;4.33;;;15.30;67.90;16.40;99378.00;;;;5085859;28;20193;-47
2024/01/01 05:03:13;;;;;;;4.70;3.87;;;15.30;67.90;16.40;99366.00;;;;5077539;28;20174;-47
2024/01/01 05:05:39;;;;;;;4.70;4.20;;;15.30;68.00;16.30;99370.00;;;;5072357;28;20186;-48
2024/01/01 05:08:05;;;;;;;4.43;3.80;;;15.30;67.80;16.40;99365.00;;;;5078465;28;20184;-48
2024/01/01 05:10:31;;;;;;;5.07;4.13;;;15.30;67.80;16.30;99382.00;;;;5072939;28;20193;-47
2024/01/01 05:12:56;;;;;;;4.47;3.83;;;15.30;67.70;16.30;99379.00;;;;5045475;28;20198;-48
2024/01/01 05:15:22;;;;;;;4.03;3.70;;;15.30;67.70;16.30;99371.00;;;;5082929;28;20231;-47
2024/01/01 05:17:48;;;;;;;4.00;3.57;;;15.30;67.70;16.30;99387.00;;;;5070796;28;20688;-48
2024/01/01 05:20:13;;;;;;;4.17;3.77;;;15.20;68.40;16.30;99386.00;;;;5070409;28;20186;-48
2024/01/01 05:22:40;;;;;;;4.70;4.17;;;15.20;67.40;16.30;99381.00;;;;5070352;28;20280;-48
2024/01/01 05:25:07;;;;;;;5.30;3.87;;;15.20;67.50;16.30;99381.00;;;;5070606;28;20205;-48
2024/01/01 05:27:32;;;;;;;4.17;3.70;;;15.20;67.40;16.30;99377.00;;;;5070412;28;20183;-47
2024/01/01 05:29:59;;;;;;;4.93;3.73;;;15.20;67.30;16.30;99372.00;;;;5070281;28;20654;-47
2024/01/01 05:32:24;;;;;;;4.30;3.70;;;15.20;67.40;16.30;99389.00;;;;5070417;28;20201;-48
2024/01/01 05:34:50;;;;;;;5.20;3.60;;;15.20;67.30;16.30;99382.00;;;;5070724;28;20783;-47
2024/01/01 05:37:16;;;;;;;3.80;3.50;;;15.20;67.30;16.20;99382.00;;;;5051995;28;20636;-47
2024/01/01 05:39:42;;;;;;;4.50;3.83;;;15.20;67.20;16.20;99383.00;;;;5069958;28;20193;-48
2024/01/01 05:42:07;;;;;;;3.70;3.30;;;15.20;67.30;16.20;99387.00;;;;5070268;28;20604;-48
2024/01/01 05:44:33;;;;;;;5.63;3.50;;;15.10;67.20;16.20;99389.00;;;;5069974;28;20178;-47
2024/01/01 05:46:59;;;;;;;4.93;3.73;;;15.10;67.10;16.20;99405.00;;;;5069735;28;20251;-48
2024/01/01 05:49:24;;;;;;;4.83;3.57;;;15.10;67.10;16.20;99399.00;;;;5069497;28;20186;-48
2024/01/01 05:51:50;;;;;;;3.67;3.17;;;15.10;67.10;16.20;99395.00;;;;5071389;28;20576;-48
2024/01/01 05:54:16;;;;;;;4.23;3.30;;;15.10;67.00;16.20;99392.00;;;;5071704;28;20185;-47
2024/01/01 05:56:44;;;;;;;4.70;3.30;;;15.10;66.90;16.20;99391.00;;;;5036594;28;20641;-48
2024/01/01 05:59:09;;;;;;;3.87;3.30;;;15.10;67.00;16.20;99408.00;;;;5065835;28;20293;-48
2024/01/01 06:01:35;;;;;;;4.63;3.63;;;15.10;66.80;16.10;99409.00;;;;5069129;28;20214;-48
2024/01/01 06:04:02;;;;;;;4.37;3.30;;;15.10;66.80;16.20;99404.00;;;;5069310;28;20173;-48
2024/01/01 06:06:27;;;;;;;4.90;3.30;;;15.10;67.00;16.20;99421.00;;;;5069401;28;20174;-48
2024/01/01 06:08:53;;;;;;;4.63;3.40;;;15.10;66.80;16.10;99409.00;;;;5069064;28;20243;-47
2024/01/01 06:11:19;;;;;;;5.03;3.27;;;15.00;66.80;16.10;99423.00;;;;5069159;28;20206;-48
2024/01/01 06:13:45;;;;;;;5.63;3.10;;;15.00;66.70;16.10;99424.00;;;;5069251;28;20178;-48
2024/01/01 06:16:13;;;;;;;6.57;3.07;;;15.10;66.80;16.10;99419.00;;;;5069172;28;20768;-48
2024/01/01 06:18:38;;;;;;;7.23;3.20;;;15.00;66.70;16.10;99433.00;;;;5068405;28;20193;-48
2024/01/01 06:21:04;;;;;;;4.33;3.10;;;15.00;66.70;16.10;99432.00;;;;5068845;28;20352;-48
2024/01/01 06:23:30;;;;;;;4.70;3.17;;;15.00;66.70;16.10;99427.00;;;;5068787;28;20658;-47
2024/01/01 06:25:56;;;;;;;7.30;3.33;;;15.10;66.80;16.10;99437.00;;;;5069325;28;20200;-49
2024/01/01 06:28:22;;;;;;;8.57;3.33;;;15.00;67.00;16.10;99430.00;;;;5068595;28;20650;-49
2024/01/01 06:30:48;;;;;;;6.47;3.13;;;15.10;67.00;16.10;99443.00;;;;5068879;28;20179;-48
2024/01/01 06:33:14;;;;;;;5.83;3.10;;;15.10;66.90;16.10;99437.00;;;;5068821;28;20178;-48
2024/01/01 06:35:39;;;;;;;5.53;3.70;;;15.00;66.70;16.10;99443.00;;;;5068366;28;20211;-48
2024/01/01 06:38:05;;;;;;;7.73;3.60;;;15.10;66.90;16.10;99437.00;;;;5068370;28;20229;-48
2024/01/01 06:40:31;;;;;;;7.00;3.43;;;15.00;66.70;16.10;99445.00;;;;5068716;28;20190;-48
2024/01/01 06:42:57;;;;;;;5.53;3.10;;;15.00;66.80;16.10;99445.00;;;;5066086;28;20199;-48
2024/01/01 06:45:22;;;;;;;5.43;3.13;;;15.00;66.80;16.00;99454.00;;;;5068210;28;20205;-48
2024/01/01 06:47:48;;;;;;;4.03;3.07;;;15.00;66.80;16.10;99440.00;;;;5039194;28;20305;-47
2024/01/01 06:50:14;;;;;;;6.37;3.03;;;15.00;67.00;16.00;99446.00;;;;5065091;28;20593;-48
2024/01/01 06:52:40;;;;;;;5.93;3.10;;;15.00;67.00;16.00;99449.00;;;;5083420;28;20257;-48
2024/01/01 06:55:06;;;;;;;7.10;3.27;;;15.00;67.00;16.00;99450.00;;;;5075895;28;20531;-48
2024/01/01 06:57:32;;;;;;;5.03;3.20;;;15.00;67.10;16.00;99462.00;;;;5049618;28;20246;-48
2024/01/01 06:59:58;;;;;;;5.47;3.03;;;15.00;67.10;16.00;99460.00;;;;5069365;28;20181;-47
2024/01/01 07:02:25;;;;;;;5.03;3.10;;;14.90;67.00;16.00;99471.00;;;;5069175;28;20280;-48
2024/01/01 07:04:51;;;;;;;4.80;2.97;;;14.90;67.00;16.00;99470.00;;;;5072943;28;20176;-49
2024/01/01 07:07:17;;;;;;;5.67;3.20;;;14.90;67.00;16.00;99464.00;;;;5083136;28;20184;-48
2024/01/01 07:09:43;;;;;;;6.80;3.00;;;14.90;67.00;16.00;99470.00;;;;5061457;28;20178;-49
2024/01/01 07:12:27;;;;;;;4.27;2.77;;;14.90;67.00;16.00;99478.00;;;;5068694;28;20355;-48
2024/01/01 07:14:53;;;;;;;3.40;2.80;;;14.90;67.10;16.00;99486.00;;;;5066275;28;20173;-49
2024/01/01 07:17:19;;;;;;;4.37;2.70;;;14.90;67.00;16.00;99485.00;;;;5068303;28;20649;-48
2024/01/01 07:19:45;;;;;;;4.77;3.10;;;14.90;67.00;16.00;99487.00;;;;5068332;28;20200;-48
2024/01/01 07:22:10;;;;;;;6.00;3.17;;;14.90;67.10;16.00;99497.00;;;;5068375;28;20267;-48
2024/01/01 07:24:36;;;;;;;3.37;2.90;;;14.90;67.80;15.90;99500.00;;;;5048919;28;20264;-49
2024/01/01 07:27:02;;;;;;;4.53;3.03;;;14.90;67.10;15.90;99505.00;;;;5067620;28;20178;-48
2024/01/01 07:29:28;;;;;;;4.70;2.87;;;14.90;67.10;15.90;99510.00;;;;5068004;28;20207;-48
2024/01/01 07:31:54;;;;;;;4.20;2.80;;;14.90;67.10;16.00;99517.00;;;;5067352;28;20197;-49
2024/01/01 07:34:20;;;;;;;4.13;2.83;;;14.90;67.10;15.90;99530.00;;;;5067962;28;20185;-49
2024/01/01 07:36:47;;;;;;;3.43;2.63;;;14.90;67.20;15.90;99534.00;;;;5068330;28;20182;-49
2024/01/01 07:39:13;;;;;;;3.97;2.70;;;14.90;67.10;15.90;99547.00;;;;5060431;28;20206;-48
2024/01/01 07:41:39;;;;;;;4.17;2.80;;;14.90;67.20;15.90;99536.00;;;;5060433;28;20194;-48
2024/01/01 07:44:07;;;;;;;3.93;2.73;;;14.90;67.10;15.90;99542.00;;;;5044015;28;20179;-48
2024/01/01 07:46:32;;;;;;;4.83;2.80;;;14.90;67.20;15.90;99549.00;;;;5066789;28;20190;-48
2024/01/01 07:49:00;;;;;;;3.93;2.60;;;14.90;67.10;15.90;99537.00;;;;5063006;28;20662;-48
2024/01/01 07:51:26;;;;;;;4.30;2.90;;;14.90;67.20;15.90;99541.00;;;;5066236;28;20251;-48
2024/01/01 07:53:52;;;;;;;5.40;2.70;;;14.90;67.30;15.90;99550.00;;;;5067193;28;20186;-48
2024/01/01 07:56:18;;;;;;;3.33;2.57;;;14.80;67.10;15.90;99560.00;;;;5066648;28;20261;-47
2024/01/01 07:58:43;;;;;;;3.03;2.57;;;14.90;67.30;15.90;99565.00;;;;5066832;28;20197;-49
2024/01/01 08:01:09;;;;;;;4.07;2.50;;;14.80;67.20;15.90;99573.00;;;;5066796;28;20202;-48
2024/01/01 08:03:35;;;;;;;3.43;2.50;;;14.80;67.20;15.90;99578.00;;;;5053119;28;20232;-48
2024/01/01 08:06:01;;;;;;;3.30;2.50;;;14.80;67.20;15.90;99573.00;;;;5062931;28;20208;-49
2024/01/01 08:08:26;;;;;;;3.63;2.50;;;14.80;67.20;15.90;99577.00;;;;5074227;28;20181;-48
2024/01/01 08:10:53;;;;;;;3.80;2.40;;;14.80;67.20;15.80;99584.00;;;;5069917;28;20820;-50
2024/01/01 08:13:19;;;;;;;2.80;2.43;;;14.80;67.20;15.80;99577.00;;;;5071025;28;20181;-49
2024/01/01 08:15:45;;;;;;;3.50;2.40;;;14.90;67.30;15.80;99582.00;;;;5041928;28;20546;-49
2024/01/01 08:18:11;;;;;;;2.67;2.40;;;14.80;67.20;15.80;99568.00;;;;5071294;28;20243;-48
2024/01/01 08:20:37;;;;;;;4.17;2.43;;;14.80;67.20;15.80;99595.00;;;;5070619;28;20193;-48
2024/01/01 08:23:03;;;;;;;3.63;2.60;;;14.80;67.20;15.80;99599.00;;;;5064143;28;20251;-48
2024/01/01 08:25:29;;;;;;;2.87;2.30;;;14.80;67.20;15.80;99591.00;;;;5063449;28;20236;-48
2024/01/01 08:27:55;;;;;;;2.93;2.30;;;14.80;67.30;15.80;99600.00;;;;5063658;28;20201;-48
2024/01/01 08:30:21;;;;;;;4.00;2.40;;;14.80;67.40;15.80;99610.00;;;;5070887;28;20173;-48
2024/01/01 08:32:47;;;;;;;3.60;2.23;;;14.80;67.40;15.80;99616.00;;;;5053243;28;20201;-48
2024/01/01 08:35:14;;;;;;;2.90;2.37;;;14.80;67.30;15.80;99616.00;;;;5063732;28;20184;-50
2024/01/01 08:37:42;;;;;;;2.67;2.40;;;14.80;67.40;15.80;99623.00;;;;5070947;28;20197;-48
2024/01/01 08:40:10;;;;;;;3.00;2.20;;;14.80;67.40;15.80;99619.00;;;;5063260;28;20174;-47
2024/01/01 08:42:37;;;;;;;2.53;2.20;;;14.80;67.40;15.80;99611.00;;;;5035136;28;20682;-48
2024/01/01 08:45:03;;;;;;;3.20;2.30;;;14.80;67.40;15.80;99619.00;;;;5066817;28;20200;-48
2024/01/01 08:47:30;;;;;;;3.23;2.40;;;14.80;67.30;15.80;99620.00;;;;5078734;28;20613;-48
2024/01/01 08:49:56;;;;;;;2.93;2.30;;;14.80;67.40;15.80;99606.00;;;;5071280;28;20181;-48
2024/01/01 08:52:22;;;;;;;3.17;2.30;;;14.80;67.30;15.80;99637.00;;;;5037802;28;20190;-48
2024/01/01 08:54:48;;;;;;;2.60;2.10;;;14.80;67.40;15.80;99628.00;;;;5072479;28;20246;-49
2024/01/01 08:57:14;;;;;;;3.20;2.47;;;14.80;67.40;15.70;99629.00;;;;5057190;28;20680;-48
2024/01/01 08:59:41;;;;;;;3.27;2.13;;;14.80;67.40;15.70;99631.00;;;;5066440;28;20200;-48
2024/01/01 09:02:08;;;;;;;3.07;2.20;;;14.70;67.30;15.70;99632.00;;;;5070968;28;20709;-47
2024/01/01 09:04:34;;;;;;;2.73;2.00;;;14.70;67.40;15.70;99646.00;;;;5044895;28;20174;-49
2024/01/01 09:07:01;;;;;;;2.70;2.10;;;14.80;67.50;15.70;99635.00;;;;5062464;28;20181;-47
2024/01/01 09:09:27;;;;;;;3.03;2.30;;;14.70;67.30;15.70;99644.00;;;;5070354;28;20181;-48
2024/01/01 09:11:53;;;;;;;3.33;2.20;;;14.70;67.40;15.70;99642.00;;;;5070872;28;20285;-49
2024/01/01 09:14:19;;;;;;;2.87;2.23;;;14.70;67.40;15.70;99647.00;;;;5062686;28;20249;-49
2024/01/01 09:16:45;;;;;;;2.30;2.00;;;14.70;67.40;15.70;99650.00;;;;5070716;28;20264;-49
2024/01/01 09:19:11;;;;;;;2.43;2.20;;;14.70;67.40;15.70;99646.00;;;;5069899;28;20422;-48
2024/01/01 09:21:38;;;;;;;2.37;2.03;;;14.70;67.40;15.70;99656.00;;;;5077201;28;20209;-48
2024/01/01 09:24:05;;;;;;;2.57;2.17;;;14.70;67.60;15.70;99593.00;;;;5070393;28;20193;-48
2024/01/01 09:26:31;;;;;;;2.33;2.13;;;14.70;67.80;15.70;99669.00;;;;5051935;28;20174;-48
2024/01/01 09:28:57;;;;;;;2.20;2.00;;;14.70;67.80;15.70;99681.00;;;;5070083;28;20182;-48
2024/01/01 09:31:23;;;;;;;2.83;2.07;;;14.70;68.00;15.70;99685.00;;;;5069644;28;20193;-48
2024/01/01 09:33:48;;;;;;;3.20;2.20;;;14.70;68.10;15.70;99684.00;;;;5070545;28;20178;-48
2024/01/01 09:36:14;;;;;;;2.30;2.10;;;14.70;68.10;15.70;99680.00;;;;5070137;28;20184;-48
2024/01/01 09:38:41;;;;;;;2.27;2.07;;;14.70;68.10;15.70;99686.00;;;;5070417;28;20240;-48
2024/01/01 09:41:13;;;;;;;3.63;2.07;;;14.70;68.10;15.70;99695.00;;;;5051069;28;20210;-48
2024/01/01 09:43:40;;;;;;;4.97;2.33;;;14.70;68.00;15.70;99690.00;;;;5070129;28;20181;-48
2024/01/01 09:46:05;;;;;;;4.80;2.30;;;14.70;68.10;15.70;99697.00;;;;5070477;28;20553;-47
2024/01/01 09:48:31;;;;;;;3.00;2.30;;;14.70;68.50;15.70;99711.00;;;;5069694;28;20184;-47
2024/01/01 09:50:57;;;;;;;3.40;2.40;;;14.70;68.50;15.60;99713.00;;;;5029558;28;20562;-48
2024/01/01 09:53:23;;;;;;;2.30;2.00;;;14.70;68.40;15.60;99714.00;;;;5075408;28;20188;-47
2024/01/01 09:55:53;;;;;;;4.03;2.30;;;14.70;69.00;15.60;99723.00;;;;5015667;28;20170;-48
2024/01/01 09:58:18;;;;;;;3.20;2.20;;;14.80;69.10;15.60;99715.00;;;;5065649;28;20451;-47
2024/01/01 10:00:44;;;;;;;4.47;2.20;;;14.90;69.20;15.60;99722.00;;;;5067502;28;20174;-47
2024/01/01 10:03:10;;;;;;;3.10;2.10;;;14.90;69.20;15.70;99723.00;;;;5065228;28;20251;-48
2024/01/01 10:05:38;;;;;;;2.80;2.00;;;15.00;69.40;15.70;99714.00;;;;5068879;28;20201;-47
2024/01/01 10:08:14;;;;;;;2.40;1.90;;;15.10;69.20;15.80;99717.00;;;;5061796;28;20174;-47
2024/01/01 10:10:41;;;;;;;2.43;2.07;;;15.20;69.20;15.90;99732.00;;;;5061325;28;20857;-47
2024/01/01 10:13:11;;;;;;;3.23;1.90;;;15.30;68.90;15.90;99729.00;;;;5074510;28;20201;-48
2024/01/01 10:15:40;;;;;;;3.17;2.10;;;15.40;69.00;16.00;99734.00;;;;5075911;28;20192;-46
2024/01/01 10:18:16;;;;;;;3.17;2.03;;;15.60;69.30;16.10;99725.00;;;;5077734;28;20201;-47
2024/01/01 10:20:45;;;;;;;3.43;1.87;;;15.70;69.40;16.20;99721.00;;;;5066173;28;20625;-47
2024/01/01 10:23:20;;;;;;;3.00;2.00;;;15.80;69.20;16.30;99718.00;;;;5064822;28;20669;-48
2024/01/01 10:26:00;;;;;;;2.20;2.00;;;15.90;68.80;16.40;99720.00;;;;5061632;28;20205;-49
2024/01/01 10:28:26;;;;;;;3.77;1.93;;;16.00;68.60;16.50;99731.00;;;;5068905;28;20179;-48
2024/01/01 10:30:52;;;;;;;7.47;1.97;;;16.10;68.50;16.60;99729.00;;;;5031455;28;20183;-48
2024/01/01 10:33:17;;;;;;;5.30;2.00;;;16.20;68.90;16.70;99730.00;;;;5031835;28;20552;-49
2024/01/01 10:35:43;;;;;;;3.27;1.93;;;16.30;69.10;16.70;99712.00;;;;5040473;28;20187;-50
2024/01/01 10:38:11;;;;;;;2.97;1.70;;;16.30;69.00;16.80;99729.00;;;;5029868;28;20325;-50
2024/01/01 10:40:37;;;;;;;3.70;2.20;;;16.40;69.10;16.90;99723.00;;;;5034907;28;20191;-49
2024/01/01 10:43:03;;;;;;;2.27;1.90;;;16.40;69.10;16.90;99731.00;;;;5070322;28;20657;-49
2024/01/01 10:45:29;;;;;;;3.80;1.93;;;16.50;69.30;17.00;99732.00;;;;5020154;28;20209;-49
2024/01/01 10:47:57;;;;;;;1.90;1.70;;;16.50;69.20;17.00;99737.00;;;;5070770;28;20212;-50
2024/01/01 10:50:29;;;;;;;2.17;1.80;;;16.50;68.80;17.10;99735.00;;;;5030858;28;20252;-52